sensor_id;sensor_type;location;lat;lon;timestamp;P1;durP1;ratioP1;P2;durP2;ratioP2
25015;SDS011;13029;46.286;7.488;2023-04-03T00:01:44;2.85;;;1.58;;
25015;SDS011;13029;46.286;7.488;2023-04-03T00:04:10;1.35;;;1.25;;
25015;SDS011;13029;46.286;7.488;2023-04-03T00:06:35;1.33;;;1.23;;
25015;SDS011;13029;46.286;7.488;2023-04-03T00:09:00;1.85;;;1.40;;
25015;SDS011;13029;46.286;7.488;2023-04-03T00:11:26;1.30;;;1.20;;
25015;SDS011;13029;46.286;7.488;2023-04-03T00:13:51;1.52;;;1.40;;
25015;SDS011;13029;46.286;7.488;2023-04-03T00:16:17;1.75;;;1.65;;
25015;SDS011;13029;46.286;7.488;2023-04-03T00:18:42;1.65;;;1.55;;
25015;SDS011;13029;46.286;7.488;2023-04-03T00:21:09;1.42;;;1.33;;
25015;SDS011;13029;46.286;7.488;2023-04-03T00:23:35;2.08;;;1.23;;
25015;SDS011;13029;46.286;7.488;2023-04-03T00:26:00;1.30;;;1.20;;
25015;SDS011;13029;46.286;7.488;2023-04-03T00:28:26;1.50;;;1.40;;
25015;SDS011;13029;46.286;7.488;2023-04-03T00:30:51;1.40;;;1.30;;
25015;SDS011;13029;46.286;7.488;2023-04-03T00:33:17;1.73;;;1.30;;
25015;SDS011;13029;46.286;7.488;2023-04-03T00:35:46;1.58;;;1.00;;
25015;SDS011;13029;46.286;7.488;2023-04-03T00:38:11;6.20;;;1.77;;
25015;SDS011;13029;46.286;7.488;2023-04-03T00:40:38;3.88;;;1.45;;
25015;SDS011;13029;46.286;7.488;2023-04-03T00:43:38;7.07;;;1.58;;
25015;SDS011;13029;46.286;7.488;2023-04-03T00:45:56;2.38;;;1.50;;
25015;SDS011;13029;46.286;7.488;2023-04-03T00:48:27;2.42;;;1.23;;
25015;SDS011;13029;46.286;7.488;2023-04-03T00:50:55;1.85;;;1.33;;
25015;SDS011;13029;46.286;7.488;2023-04-03T00:53:40;2.35;;;1.58;;
25015;SDS011;13029;46.286;7.488;2023-04-03T00:56:12;1.90;;;1.60;;
25015;SDS011;13029;46.286;7.488;2023-04-03T00:58:41;1.50;;;1.30;;
25015;SDS011;13029;46.286;7.488;2023-04-03T01:03:36;1.50;;;1.40;;
25015;SDS011;13029;46.286;7.488;2023-04-03T01:06:02;1.30;;;1.20;;
25015;SDS011;13029;46.286;7.488;2023-04-03T01:08:27;4.28;;;1.67;;
25015;SDS011;13029;46.286;7.488;2023-04-03T01:10:53;1.40;;;1.30;;
25015;SDS011;13029;46.286;7.488;2023-04-03T01:13:26;1.67;;;1.48;;
25015;SDS011;13029;46.286;7.488;2023-04-03T01:15:55;1.70;;;1.60;;
25015;SDS011;13029;46.286;7.488;2023-04-03T01:18:22;1.60;;;1.50;;
25015;SDS011;13029;46.286;7.488;2023-04-03T01:26:02;1.50;;;1.40;;
25015;SDS011;13029;46.286;7.488;2023-04-03T01:33:53;1.75;;;1.65;;
25015;SDS011;13029;46.286;7.488;2023-04-03T01:36:23;1.60;;;1.50;;
25015;SDS011;13029;46.286;7.488;2023-04-03T01:38:50;2.20;;;2.00;;
25015;SDS011;13029;46.286;7.488;2023-04-03T01:41:15;2.85;;;1.48;;
25015;SDS011;13029;46.286;7.488;2023-04-03T01:43:41;2.22;;;1.60;;
25015;SDS011;13029;46.286;7.488;2023-04-03T01:46:06;1.90;;;1.50;;
25015;SDS011;13029;46.286;7.488;2023-04-03T01:48:32;1.60;;;1.50;;
25015;SDS011;13029;46.286;7.488;2023-04-03T01:50:58;1.58;;;1.48;;
25015;SDS011;13029;46.286;7.488;2023-04-03T01:53:23;1.60;;;1.50;;
25015;SDS011;13029;46.286;7.488;2023-04-03T01:55:48;1.55;;;1.40;;
25015;SDS011;13029;46.286;7.488;2023-04-03T01:58:14;1.60;;;1.50;;
25015;SDS011;13029;46.286;7.488;2023-04-03T02:00:39;4.03;;;1.48;;
25015;SDS011;13029;46.286;7.488;2023-04-03T02:03:04;1.83;;;1.63;;
25015;SDS011;13029;46.286;7.488;2023-04-03T02:05:30;1.60;;;1.48;;
25015;SDS011;13029;46.286;7.488;2023-04-03T02:07:55;1.70;;;1.60;;
25015;SDS011;13029;46.286;7.488;2023-04-03T02:10:21;1.92;;;1.73;;
25015;SDS011;13029;46.286;7.488;2023-04-03T02:12:46;5.22;;;1.70;;
25015;SDS011;13029;46.286;7.488;2023-04-03T02:15:12;2.08;;;1.70;;
25015;SDS011;13029;46.286;7.488;2023-04-03T02:17:37;2.38;;;1.67;;
25015;SDS011;13029;46.286;7.488;2023-04-03T02:20:02;1.50;;;1.40;;
25015;SDS011;13029;46.286;7.488;2023-04-03T02:22:28;4.20;;;1.70;;
25015;SDS011;13029;46.286;7.488;2023-04-03T02:24:53;1.70;;;1.60;;
25015;SDS011;13029;46.286;7.488;2023-04-03T02:27:19;1.85;;;1.50;;
25015;SDS011;13029;46.286;7.488;2023-04-03T02:29:44;2.00;;;1.85;;
25015;SDS011;13029;46.286;7.488;2023-04-03T02:32:09;2.33;;;1.80;;
25015;SDS011;13029;46.286;7.488;2023-04-03T02:34:35;1.95;;;1.60;;
25015;SDS011;13029;46.286;7.488;2023-04-03T02:37:00;1.70;;;1.60;;
25015;SDS011;13029;46.286;7.488;2023-04-03T02:39:25;1.95;;;1.67;;
25015;SDS011;13029;46.286;7.488;2023-04-03T02:41:51;1.48;;;1.38;;
25015;SDS011;13029;46.286;7.488;2023-04-03T02:44:16;3.42;;;1.40;;
25015;SDS011;13029;46.286;7.488;2023-04-03T02:46:41;2.42;;;1.70;;
25015;SDS011;13029;46.286;7.488;2023-04-03T02:49:07;1.52;;;1.42;;
25015;SDS011;13029;46.286;7.488;2023-04-03T02:51:32;3.30;;;1.70;;
25015;SDS011;13029;46.286;7.488;2023-04-03T02:53:57;5.32;;;2.08;;
25015;SDS011;13029;46.286;7.488;2023-04-03T02:56:23;2.08;;;1.67;;
25015;SDS011;13029;46.286;7.488;2023-04-03T02:58:48;2.70;;;1.90;;
25015;SDS011;13029;46.286;7.488;2023-04-03T03:01:13;3.13;;;1.50;;
25015;SDS011;13029;46.286;7.488;2023-04-03T03:03:39;2.67;;;1.58;;
25015;SDS011;13029;46.286;7.488;2023-04-03T03:06:08;3.00;;;2.10;;
25015;SDS011;13029;46.286;7.488;2023-04-03T03:08:41;1.98;;;1.77;;
25015;SDS011;13029;46.286;7.488;2023-04-03T03:11:06;1.98;;;1.75;;
25015;SDS011;13029;46.286;7.488;2023-04-03T03:13:32;1.60;;;1.50;;
25015;SDS011;13029;46.286;7.488;2023-04-03T03:15:57;2.13;;;1.70;;
25015;SDS011;13029;46.286;7.488;2023-04-03T03:18:22;2.88;;;1.75;;
25015;SDS011;13029;46.286;7.488;2023-04-03T03:20:55;1.70;;;1.60;;
25015;SDS011;13029;46.286;7.488;2023-04-03T03:23:22;2.20;;;2.00;;
25015;SDS011;13029;46.286;7.488;2023-04-03T03:25:48;3.28;;;2.03;;
25015;SDS011;13029;46.286;7.488;2023-04-03T03:28:13;3.80;;;1.70;;
25015;SDS011;13029;46.286;7.488;2023-04-03T03:30:38;1.95;;;1.80;;
25015;SDS011;13029;46.286;7.488;2023-04-03T03:33:04;1.95;;;1.80;;
25015;SDS011;13029;46.286;7.488;2023-04-03T03:35:29;4.35;;;1.83;;
25015;SDS011;13029;46.286;7.488;2023-04-03T03:37:55;4.50;;;1.60;;
25015;SDS011;13029;46.286;7.488;2023-04-03T03:40:20;2.08;;;1.88;;
25015;SDS011;13029;46.286;7.488;2023-04-03T03:42:45;2.33;;;2.13;;
25015;SDS011;13029;46.286;7.488;2023-04-03T03:45:11;2.28;;;2.08;;
25015;SDS011;13029;46.286;7.488;2023-04-03T03:47:36;3.42;;;2.55;;
25015;SDS011;13029;46.286;7.488;2023-04-03T03:50:02;2.35;;;2.05;;
25015;SDS011;13029;46.286;7.488;2023-04-03T03:52:27;2.22;;;1.98;;
25015;SDS011;13029;46.286;7.488;2023-04-03T03:54:54;2.20;;;2.10;;
25015;SDS011;13029;46.286;7.488;2023-04-03T03:57:20;2.25;;;1.98;;
25015;SDS011;13029;46.286;7.488;2023-04-03T03:59:46;1.80;;;1.70;;
25015;SDS011;13029;46.286;7.488;2023-04-03T04:02:12;1.77;;;1.67;;
25015;SDS011;13029;46.286;7.488;2023-04-03T04:04:37;1.75;;;1.65;;
25015;SDS011;13029;46.286;7.488;2023-04-03T04:07:03;1.75;;;1.65;;
25015;SDS011;13029;46.286;7.488;2023-04-03T04:09:28;1.98;;;1.60;;
25015;SDS011;13029;46.286;7.488;2023-04-03T04:11:54;4.20;;;1.70;;
25015;SDS011;13029;46.286;7.488;2023-04-03T04:14:19;2.15;;;1.80;;
25015;SDS011;13029;46.286;7.488;2023-04-03T04:16:48;1.50;;;1.40;;
25015;SDS011;13029;46.286;7.488;2023-04-03T04:19:13;1.77;;;1.58;;
25015;SDS011;13029;46.286;7.488;2023-04-03T04:21:39;1.80;;;1.50;;
25015;SDS011;13029;46.286;7.488;2023-04-03T04:24:04;3.03;;;1.67;;
25015;SDS011;13029;46.286;7.488;2023-04-03T04:26:30;1.90;;;1.60;;
25015;SDS011;13029;46.286;7.488;2023-04-03T04:28:55;4.43;;;1.90;;
25015;SDS011;13029;46.286;7.488;2023-04-03T04:31:21;1.80;;;1.70;;
25015;SDS011;13029;46.286;7.488;2023-04-03T04:33:46;2.70;;;1.40;;
25015;SDS011;13029;46.286;7.488;2023-04-03T04:36:11;2.38;;;1.70;;
25015;SDS011;13029;46.286;7.488;2023-04-03T04:38:37;1.75;;;1.63;;
25015;SDS011;13029;46.286;7.488;2023-04-03T04:41:03;6.78;;;1.42;;
25015;SDS011;13029;46.286;7.488;2023-04-03T04:43:29;1.40;;;1.30;;
25015;SDS011;13029;46.286;7.488;2023-04-03T04:46:08;1.25;;;1.10;;
25015;SDS011;13029;46.286;7.488;2023-04-03T04:48:35;1.58;;;1.10;;
25015;SDS011;13029;46.286;7.488;2023-04-03T04:51:01;2.38;;;0.95;;
25015;SDS011;13029;46.286;7.488;2023-04-03T04:53:26;1.30;;;1.20;;
25015;SDS011;13029;46.286;7.488;2023-04-03T04:55:52;2.08;;;1.15;;
25015;SDS011;13029;46.286;7.488;2023-04-03T04:58:17;1.63;;;1.38;;
25015;SDS011;13029;46.286;7.488;2023-04-03T05:00:43;1.73;;;1.30;;
25015;SDS011;13029;46.286;7.488;2023-04-03T05:03:08;6.70;;;1.45;;
25015;SDS011;13029;46.286;7.488;2023-04-03T05:05:33;2.88;;;1.60;;
25015;SDS011;13029;46.286;7.488;2023-04-03T05:08:00;3.75;;;1.58;;
25015;SDS011;13029;46.286;7.488;2023-04-03T05:10:25;1.80;;;1.52;;
25015;SDS011;13029;46.286;7.488;2023-04-03T05:12:51;2.67;;;1.25;;
25015;SDS011;13029;46.286;7.488;2023-04-03T05:15:16;1.42;;;1.27;;
25015;SDS011;13029;46.286;7.488;2023-04-03T05:17:41;2.72;;;1.60;;
25015;SDS011;13029;46.286;7.488;2023-04-03T05:20:07;2.58;;;1.55;;
25015;SDS011;13029;46.286;7.488;2023-04-03T05:22:33;2.92;;;1.60;;
25015;SDS011;13029;46.286;7.488;2023-04-03T05:24:58;4.88;;;1.42;;
25015;SDS011;13029;46.286;7.488;2023-04-03T05:27:24;1.45;;;1.35;;
25015;SDS011;13029;46.286;7.488;2023-04-03T05:29:50;5.80;;;1.70;;
25015;SDS011;13029;46.286;7.488;2023-04-03T05:32:15;2.05;;;1.40;;
25015;SDS011;13029;46.286;7.488;2023-04-03T05:34:41;4.15;;;1.67;;
25015;SDS011;13029;46.286;7.488;2023-04-03T05:37:06;4.35;;;1.63;;
25015;SDS011;13029;46.286;7.488;2023-04-03T05:39:31;1.73;;;1.50;;
25015;SDS011;13029;46.286;7.488;2023-04-03T05:41:57;4.18;;;1.73;;
25015;SDS011;13029;46.286;7.488;2023-04-03T05:44:22;2.00;;;1.80;;
25015;SDS011;13029;46.286;7.488;2023-04-03T05:46:47;3.33;;;2.13;;
25015;SDS011;13029;46.286;7.488;2023-04-03T05:49:13;3.50;;;2.00;;
25015;SDS011;13029;46.286;7.488;2023-04-03T05:51:38;1.67;;;1.50;;
25015;SDS011;13029;46.286;7.488;2023-04-03T05:54:09;1.92;;;1.80;;
25015;SDS011;13029;46.286;7.488;2023-04-03T05:56:36;1.75;;;1.65;;
25015;SDS011;13029;46.286;7.488;2023-04-03T05:59:02;1.60;;;1.50;;
25015;SDS011;13029;46.286;7.488;2023-04-03T06:01:27;1.58;;;1.48;;
25015;SDS011;13029;46.286;7.488;2023-04-03T06:03:52;1.92;;;1.42;;
25015;SDS011;13029;46.286;7.488;2023-04-03T06:06:18;3.28;;;2.00;;
25015;SDS011;13029;46.286;7.488;2023-04-03T06:08:44;3.40;;;2.55;;
25015;SDS011;13029;46.286;7.488;2023-04-03T06:11:11;3.75;;;2.30;;
25015;SDS011;13029;46.286;7.488;2023-04-03T06:13:36;3.53;;;2.55;;
25015;SDS011;13029;46.286;7.488;2023-04-03T06:16:02;4.53;;;2.58;;
25015;SDS011;13029;46.286;7.488;2023-04-03T06:18:27;4.45;;;3.20;;
25015;SDS011;13029;46.286;7.488;2023-04-03T06:20:52;7.22;;;2.75;;
25015;SDS011;13029;46.286;7.488;2023-04-03T06:23:18;5.28;;;2.85;;
25015;SDS011;13029;46.286;7.488;2023-04-03T06:25:43;6.32;;;3.33;;
25015;SDS011;13029;46.286;7.488;2023-04-03T06:28:09;4.50;;;2.35;;
25015;SDS011;13029;46.286;7.488;2023-04-03T06:30:35;2.85;;;1.88;;
25015;SDS011;13029;46.286;7.488;2023-04-03T06:33:01;2.13;;;1.80;;
25015;SDS011;13029;46.286;7.488;2023-04-03T06:35:27;2.30;;;2.08;;
25015;SDS011;13029;46.286;7.488;2023-04-03T06:37:53;5.07;;;2.08;;
25015;SDS011;13029;46.286;7.488;2023-04-03T06:40:21;3.35;;;2.22;;
25015;SDS011;13029;46.286;7.488;2023-04-03T06:42:47;4.07;;;2.58;;
25015;SDS011;13029;46.286;7.488;2023-04-03T06:45:12;4.32;;;2.00;;
25015;SDS011;13029;46.286;7.488;2023-04-03T06:47:38;2.83;;;2.50;;
25015;SDS011;13029;46.286;7.488;2023-04-03T06:50:03;2.95;;;2.17;;
25015;SDS011;13029;46.286;7.488;2023-04-03T06:52:30;3.00;;;2.30;;
25015;SDS011;13029;46.286;7.488;2023-04-03T06:54:55;2.58;;;2.10;;
25015;SDS011;13029;46.286;7.488;2023-04-03T06:57:23;3.20;;;2.17;;
25015;SDS011;13029;46.286;7.488;2023-04-03T06:59:49;2.22;;;1.48;;
25015;SDS011;13029;46.286;7.488;2023-04-03T07:02:15;4.32;;;1.27;;
25015;SDS011;13029;46.286;7.488;2023-04-03T07:04:40;1.35;;;1.25;;
25015;SDS011;13029;46.286;7.488;2023-04-03T07:07:05;2.53;;;1.20;;
25015;SDS011;13029;46.286;7.488;2023-04-03T07:09:31;2.10;;;1.40;;
25015;SDS011;13029;46.286;7.488;2023-04-03T07:11:56;6.22;;;1.92;;
25015;SDS011;13029;46.286;7.488;2023-04-03T07:14:21;2.35;;;1.40;;
25015;SDS011;13029;46.286;7.488;2023-04-03T07:16:47;2.72;;;1.65;;
25015;SDS011;13029;46.286;7.488;2023-04-03T07:19:12;1.67;;;1.17;;
25015;SDS011;13029;46.286;7.488;2023-04-03T07:21:37;2.58;;;1.00;;
25015;SDS011;13029;46.286;7.488;2023-04-03T07:24:03;0.65;;;0.60;;
25015;SDS011;13029;46.286;7.488;2023-04-03T07:26:28;4.85;;;1.20;;
25015;SDS011;13029;46.286;7.488;2023-04-03T07:28:54;0.80;;;0.73;;
25015;SDS011;13029;46.286;7.488;2023-04-03T07:31:19;3.80;;;1.00;;
25015;SDS011;13029;46.286;7.488;2023-04-03T07:33:45;1.90;;;1.10;;
25015;SDS011;13029;46.286;7.488;2023-04-03T07:36:11;3.97;;;0.85;;
25015;SDS011;13029;46.286;7.488;2023-04-03T07:38:40;1.38;;;0.95;;
25015;SDS011;13029;46.286;7.488;2023-04-03T07:41:06;4.03;;;1.00;;
25015;SDS011;13029;46.286;7.488;2023-04-03T07:43:31;4.28;;;1.20;;
25015;SDS011;13029;46.286;7.488;2023-04-03T07:45:56;1.35;;;0.77;;
25015;SDS011;13029;46.286;7.488;2023-04-03T07:48:23;1.10;;;0.80;;
25015;SDS011;13029;46.286;7.488;2023-04-03T07:50:49;2.60;;;0.70;;
25015;SDS011;13029;46.286;7.488;2023-04-03T07:53:14;2.65;;;1.00;;
25015;SDS011;13029;46.286;7.488;2023-04-03T07:55:40;1.25;;;1.02;;
25015;SDS011;13029;46.286;7.488;2023-04-03T07:58:12;0.90;;;0.80;;
25015;SDS011;13029;46.286;7.488;2023-04-03T08:00:40;0.88;;;0.88;;
25015;SDS011;13029;46.286;7.488;2023-04-03T08:03:05;2.17;;;1.00;;
25015;SDS011;13029;46.286;7.488;2023-04-03T08:05:31;19.15;;;1.83;;
25015;SDS011;13029;46.286;7.488;2023-04-03T08:08:00;2.30;;;1.00;;
25015;SDS011;13029;46.286;7.488;2023-04-03T08:10:25;3.08;;;1.10;;
25015;SDS011;13029;46.286;7.488;2023-04-03T08:12:50;1.40;;;1.10;;
25015;SDS011;13029;46.286;7.488;2023-04-03T08:15:16;2.60;;;1.08;;
25015;SDS011;13029;46.286;7.488;2023-04-03T08:17:41;2.53;;;0.77;;
25015;SDS011;13029;46.286;7.488;2023-04-03T08:20:07;2.78;;;0.90;;
25015;SDS011;13029;46.286;7.488;2023-04-03T08:22:34;1.50;;;1.08;;
25015;SDS011;13029;46.286;7.488;2023-04-03T08:24:59;1.73;;;1.00;;
25015;SDS011;13029;46.286;7.488;2023-04-03T08:27:26;1.90;;;1.05;;
25015;SDS011;13029;46.286;7.488;2023-04-03T08:29:52;5.10;;;0.63;;
25015;SDS011;13029;46.286;7.488;2023-04-03T08:32:17;1.10;;;0.80;;
25015;SDS011;13029;46.286;7.488;2023-04-03T08:34:43;2.95;;;0.85;;
25015;SDS011;13029;46.286;7.488;2023-04-03T08:37:08;2.55;;;0.70;;
25015;SDS011;13029;46.286;7.488;2023-04-03T08:39:33;3.45;;;1.35;;
25015;SDS011;13029;46.286;7.488;2023-04-03T08:42:00;1.70;;;1.05;;
25015;SDS011;13029;46.286;7.488;2023-04-03T08:44:39;2.17;;;0.90;;
25015;SDS011;13029;46.286;7.488;2023-04-03T08:47:28;0.30;;;0.30;;
25015;SDS011;13029;46.286;7.488;2023-04-03T08:50:02;1.65;;;0.52;;
25015;SDS011;13029;46.286;7.488;2023-04-03T08:55:17;2.97;;;0.60;;
25015;SDS011;13029;46.286;7.488;2023-04-03T08:57:48;1.35;;;0.60;;
25015;SDS011;13029;46.286;7.488;2023-04-03T09:00:18;1.95;;;0.40;;
25015;SDS011;13029;46.286;7.488;2023-04-03T09:02:49;0.82;;;0.52;;
25015;SDS011;13029;46.286;7.488;2023-04-03T09:05:20;0.77;;;0.38;;
25015;SDS011;13029;46.286;7.488;2023-04-03T09:07:59;0.73;;;0.30;;
25015;SDS011;13029;46.286;7.488;2023-04-03T09:10:30;0.45;;;0.30;;
25015;SDS011;13029;46.286;7.488;2023-04-03T09:13:06;0.47;;;0.47;;
25015;SDS011;13029;46.286;7.488;2023-04-03T09:15:38;0.75;;;0.35;;
25015;SDS011;13029;46.286;7.488;2023-04-03T09:20:56;0.30;;;0.30;;
25015;SDS011;13029;46.286;7.488;2023-04-03T09:23:38;0.90;;;0.45;;
25015;SDS011;13029;46.286;7.488;2023-04-03T09:26:13;3.28;;;0.50;;
25015;SDS011;13029;46.286;7.488;2023-04-03T09:28:41;0.43;;;0.20;;
25015;SDS011;13029;46.286;7.488;2023-04-03T09:31:16;0.88;;;0.40;;
25015;SDS011;13029;46.286;7.488;2023-04-03T09:34:02;0.20;;;0.20;;
25015;SDS011;13029;46.286;7.488;2023-04-03T09:36:49;0.40;;;0.40;;
25015;SDS011;13029;46.286;7.488;2023-04-03T09:39:28;0.60;;;0.50;;
25015;SDS011;13029;46.286;7.488;2023-04-03T09:42:04;1.38;;;0.40;;
25015;SDS011;13029;46.286;7.488;2023-04-03T09:44:36;0.35;;;0.30;;
25015;SDS011;13029;46.286;7.488;2023-04-03T09:49:46;4.60;;;0.70;;
25015;SDS011;13029;46.286;7.488;2023-04-03T09:52:23;2.80;;;0.50;;
25015;SDS011;13029;46.286;7.488;2023-04-03T09:54:50;0.45;;;0.45;;
25015;SDS011;13029;46.286;7.488;2023-04-03T09:57:15;0.65;;;0.63;;
25015;SDS011;13029;46.286;7.488;2023-04-03T09:59:47;1.05;;;0.70;;
25015;SDS011;13029;46.286;7.488;2023-04-03T10:02:28;2.40;;;0.70;;
25015;SDS011;13029;46.286;7.488;2023-04-03T10:05:01;1.52;;;1.00;;
25015;SDS011;13029;46.286;7.488;2023-04-03T10:10:01;0.80;;;0.60;;
25015;SDS011;13029;46.286;7.488;2023-04-03T10:12:28;2.08;;;0.57;;
25015;SDS011;13029;46.286;7.488;2023-04-03T10:20:15;0.80;;;0.65;;
25015;SDS011;13029;46.286;7.488;2023-04-03T10:29:13;2.63;;;0.80;;
25015;SDS011;13029;46.286;7.488;2023-04-03T10:34:44;4.55;;;1.25;;
25015;SDS011;13029;46.286;7.488;2023-04-03T10:37:14;0.88;;;0.60;;
25015;SDS011;13029;46.286;7.488;2023-04-03T10:39:51;1.23;;;0.77;;
25015;SDS011;13029;46.286;7.488;2023-04-03T10:42:28;2.35;;;0.70;;
25015;SDS011;13029;46.286;7.488;2023-04-03T10:47:54;1.00;;;0.70;;
25015;SDS011;13029;46.286;7.488;2023-04-03T10:58:36;1.67;;;0.70;;
25015;SDS011;13029;46.286;7.488;2023-04-03T11:01:12;1.67;;;0.80;;
25015;SDS011;13029;46.286;7.488;2023-04-03T11:03:47;0.65;;;0.60;;
25015;SDS011;13029;46.286;7.488;2023-04-03T11:06:16;1.88;;;0.70;;
25015;SDS011;13029;46.286;7.488;2023-04-03T11:08:44;1.08;;;0.50;;
25015;SDS011;13029;46.286;7.488;2023-04-03T11:11:13;0.55;;;0.52;;
25015;SDS011;13029;46.286;7.488;2023-04-03T11:13:58;0.60;;;0.60;;
25015;SDS011;13029;46.286;7.488;2023-04-03T11:16:27;0.82;;;0.50;;
25015;SDS011;13029;46.286;7.488;2023-04-03T11:18:58;0.70;;;0.50;;
25015;SDS011;13029;46.286;7.488;2023-04-03T11:24:00;0.40;;;0.40;;
25015;SDS011;13029;46.286;7.488;2023-04-03T11:26:29;1.48;;;0.63;;
25015;SDS011;13029;46.286;7.488;2023-04-03T11:29:08;0.50;;;0.50;;
25015;SDS011;13029;46.286;7.488;2023-04-03T11:34:21;1.20;;;0.63;;
25015;SDS011;13029;46.286;7.488;2023-04-03T11:36:55;2.20;;;0.40;;
25015;SDS011;13029;46.286;7.488;2023-04-03T11:47:50;0.35;;;0.35;;
25015;SDS011;13029;46.286;7.488;2023-04-03T11:50:31;3.00;;;0.43;;
25015;SDS011;13029;46.286;7.488;2023-04-03T12:05:50;0.80;;;0.70;;
25015;SDS011;13029;46.286;7.488;2023-04-03T12:16:22;0.82;;;0.50;;
25015;SDS011;13029;46.286;7.488;2023-04-03T12:22:05;0.60;;;0.60;;
25015;SDS011;13029;46.286;7.488;2023-04-03T12:29:59;0.60;;;0.60;;
25015;SDS011;13029;46.286;7.488;2023-04-03T12:48:46;0.70;;;0.65;;
25015;SDS011;13029;46.286;7.488;2023-04-03T12:51:28;2.95;;;0.70;;
25015;SDS011;13029;46.286;7.488;2023-04-03T12:54:01;4.55;;;0.70;;
25015;SDS011;13029;46.286;7.488;2023-04-03T12:56:29;1.75;;;0.50;;
25015;SDS011;13029;46.286;7.488;2023-04-03T12:59:12;1.80;;;0.45;;
25015;SDS011;13029;46.286;7.488;2023-04-03T13:01:39;0.85;;;0.60;;
25015;SDS011;13029;46.286;7.488;2023-04-03T13:04:05;0.70;;;0.70;;
25015;SDS011;13029;46.286;7.488;2023-04-03T13:06:32;6.25;;;0.77;;
25015;SDS011;13029;46.286;7.488;2023-04-03T13:09:02;0.57;;;0.55;;
25015;SDS011;13029;46.286;7.488;2023-04-03T13:11:38;0.77;;;0.50;;
25015;SDS011;13029;46.286;7.488;2023-04-03T13:14:14;1.00;;;0.55;;
25015;SDS011;13029;46.286;7.488;2023-04-03T13:16:41;3.03;;;0.90;;
25015;SDS011;13029;46.286;7.488;2023-04-03T13:19:06;2.25;;;0.68;;
25015;SDS011;13029;46.286;7.488;2023-04-03T13:21:41;0.45;;;0.45;;
25015;SDS011;13029;46.286;7.488;2023-04-03T13:24:08;2.22;;;0.60;;
25015;SDS011;13029;46.286;7.488;2023-04-03T13:26:34;0.52;;;0.50;;
25015;SDS011;13029;46.286;7.488;2023-04-03T13:29:04;0.80;;;0.50;;
25015;SDS011;13029;46.286;7.488;2023-04-03T13:31:36;0.85;;;0.60;;
25015;SDS011;13029;46.286;7.488;2023-04-03T13:34:10;0.80;;;0.68;;
25015;SDS011;13029;46.286;7.488;2023-04-03T13:36:39;1.38;;;0.65;;
25015;SDS011;13029;46.286;7.488;2023-04-03T13:39:17;0.98;;;0.75;;
25015;SDS011;13029;46.286;7.488;2023-04-03T13:41:48;2.83;;;0.50;;
25015;SDS011;13029;46.286;7.488;2023-04-03T13:46:47;1.17;;;0.77;;
25015;SDS011;13029;46.286;7.488;2023-04-03T13:49:38;2.33;;;0.60;;
25015;SDS011;13029;46.286;7.488;2023-04-03T13:52:26;3.22;;;0.68;;
25015;SDS011;13029;46.286;7.488;2023-04-03T13:54:59;1.85;;;0.60;;
25015;SDS011;13029;46.286;7.488;2023-04-03T13:57:26;1.30;;;0.93;;
25015;SDS011;13029;46.286;7.488;2023-04-03T13:59:52;0.70;;;0.70;;
25015;SDS011;13029;46.286;7.488;2023-04-03T14:02:19;0.98;;;0.88;;
25015;SDS011;13029;46.286;7.488;2023-04-03T14:04:59;0.85;;;0.80;;
25015;SDS011;13029;46.286;7.488;2023-04-03T14:07:26;1.35;;;0.90;;
25015;SDS011;13029;46.286;7.488;2023-04-03T14:09:52;1.15;;;1.00;;
25015;SDS011;13029;46.286;7.488;2023-04-03T14:12:20;0.93;;;0.80;;
25015;SDS011;13029;46.286;7.488;2023-04-03T14:14:51;1.13;;;0.75;;
25015;SDS011;13029;46.286;7.488;2023-04-03T14:17:18;0.73;;;0.70;;
25015;SDS011;13029;46.286;7.488;2023-04-03T14:19:45;1.30;;;0.70;;
25015;SDS011;13029;46.286;7.488;2023-04-03T14:22:21;0.60;;;0.60;;
25015;SDS011;13029;46.286;7.488;2023-04-03T14:24:51;0.80;;;0.80;;
25015;SDS011;13029;46.286;7.488;2023-04-03T14:27:22;0.63;;;0.63;;
25015;SDS011;13029;46.286;7.488;2023-04-03T14:29:49;1.38;;;0.65;;
25015;SDS011;13029;46.286;7.488;2023-04-03T14:32:16;1.02;;;0.55;;
25015;SDS011;13029;46.286;7.488;2023-04-03T14:34:43;1.30;;;0.80;;
25015;SDS011;13029;46.286;7.488;2023-04-03T14:37:10;2.40;;;0.80;;
25015;SDS011;13029;46.286;7.488;2023-04-03T14:39:37;2.08;;;0.90;;
25015;SDS011;13029;46.286;7.488;2023-04-03T14:42:02;2.50;;;0.90;;
25015;SDS011;13029;46.286;7.488;2023-04-03T14:44:27;0.70;;;0.70;;
25015;SDS011;13029;46.286;7.488;2023-04-03T14:46:53;0.82;;;0.80;;
25015;SDS011;13029;46.286;7.488;2023-04-03T14:49:19;3.67;;;0.80;;
25015;SDS011;13029;46.286;7.488;2023-04-03T14:51:46;2.05;;;1.00;;
25015;SDS011;13029;46.286;7.488;2023-04-03T14:54:13;2.83;;;1.08;;
25015;SDS011;13029;46.286;7.488;2023-04-03T14:56:43;2.50;;;0.70;;
25015;SDS011;13029;46.286;7.488;2023-04-03T14:59:09;2.33;;;0.98;;
25015;SDS011;13029;46.286;7.488;2023-04-03T15:01:36;3.25;;;0.98;;
25015;SDS011;13029;46.286;7.488;2023-04-03T15:04:04;3.03;;;0.85;;
25015;SDS011;13029;46.286;7.488;2023-04-03T15:06:34;1.00;;;1.00;;
25015;SDS011;13029;46.286;7.488;2023-04-03T15:09:00;1.50;;;1.20;;
25015;SDS011;13029;46.286;7.488;2023-04-03T15:11:25;2.20;;;1.00;;
25015;SDS011;13029;46.286;7.488;2023-04-03T15:13:51;1.38;;;1.27;;
25015;SDS011;13029;46.286;7.488;2023-04-03T15:16:17;3.03;;;1.10;;
25015;SDS011;13029;46.286;7.488;2023-04-03T15:18:44;4.38;;;1.70;;
25015;SDS011;13029;46.286;7.488;2023-04-03T15:21:10;2.90;;;1.50;;
25015;SDS011;13029;46.286;7.488;2023-04-03T15:23:35;2.28;;;1.25;;
25015;SDS011;13029;46.286;7.488;2023-04-03T15:26:01;4.07;;;1.70;;
25015;SDS011;13029;46.286;7.488;2023-04-03T15:28:31;3.55;;;1.80;;
25015;SDS011;13029;46.286;7.488;2023-04-03T15:30:58;1.35;;;1.10;;
25015;SDS011;13029;46.286;7.488;2023-04-03T15:33:24;2.28;;;1.80;;
25015;SDS011;13029;46.286;7.488;2023-04-03T15:35:50;3.88;;;2.05;;
25015;SDS011;13029;46.286;7.488;2023-04-03T15:38:15;3.28;;;1.80;;
25015;SDS011;13029;46.286;7.488;2023-04-03T15:40:41;4.13;;;1.85;;
25015;SDS011;13029;46.286;7.488;2023-04-03T15:43:08;2.17;;;1.83;;
25015;SDS011;13029;46.286;7.488;2023-04-03T15:45:34;2.33;;;1.60;;
25015;SDS011;13029;46.286;7.488;2023-04-03T15:48:01;3.13;;;1.95;;
25015;SDS011;13029;46.286;7.488;2023-04-03T15:50:27;2.35;;;1.75;;
25015;SDS011;13029;46.286;7.488;2023-04-03T15:52:52;3.72;;;1.88;;
25015;SDS011;13029;46.286;7.488;2023-04-03T15:55:23;2.08;;;1.88;;
25015;SDS011;13029;46.286;7.488;2023-04-03T15:57:49;2.45;;;1.90;;
25015;SDS011;13029;46.286;7.488;2023-04-03T16:00:15;4.95;;;2.20;;
25015;SDS011;13029;46.286;7.488;2023-04-03T16:02:41;4.68;;;2.10;;
25015;SDS011;13029;46.286;7.488;2023-04-03T16:05:07;5.97;;;2.13;;
25015;SDS011;13029;46.286;7.488;2023-04-03T16:07:34;5.10;;;2.20;;
25015;SDS011;13029;46.286;7.488;2023-04-03T16:09:59;3.97;;;2.38;;
25015;SDS011;13029;46.286;7.488;2023-04-03T16:12:25;2.50;;;2.30;;
25015;SDS011;13029;46.286;7.488;2023-04-03T16:14:50;3.78;;;2.35;;
25015;SDS011;13029;46.286;7.488;2023-04-03T16:17:16;2.45;;;2.03;;
25015;SDS011;13029;46.286;7.488;2023-04-03T16:19:41;2.88;;;2.00;;
25015;SDS011;13029;46.286;7.488;2023-04-03T16:22:07;2.85;;;2.15;;
25015;SDS011;13029;46.286;7.488;2023-04-03T16:24:32;3.47;;;2.58;;
25015;SDS011;13029;46.286;7.488;2023-04-03T16:26:57;2.58;;;2.22;;
25015;SDS011;13029;46.286;7.488;2023-04-03T16:29:23;3.28;;;2.42;;
25015;SDS011;13029;46.286;7.488;2023-04-03T16:31:48;2.53;;;2.10;;
25015;SDS011;13029;46.286;7.488;2023-04-03T16:34:14;5.63;;;2.67;;
25015;SDS011;13029;46.286;7.488;2023-04-03T16:36:40;3.20;;;2.45;;
25015;SDS011;13029;46.286;7.488;2023-04-03T16:39:05;2.42;;;2.20;;
25015;SDS011;13029;46.286;7.488;2023-04-03T16:41:31;2.60;;;2.40;;
25015;SDS011;13029;46.286;7.488;2023-04-03T16:43:57;2.80;;;2.17;;